sensor_id;sensor_type;location;lat;lon;timestamp;P1;durP1;ratioP1;P2;durP2;ratioP2
66800;SDS011;53703;50.326;19.122;2023-02-15T00:02:11;19.70;;;9.10;;
66800;SDS011;53703;50.326;19.122;2023-02-15T00:05:02;16.30;;;9.00;;
66800;SDS011;53703;50.326;19.122;2023-02-15T00:07:56;16.40;;;8.10;;
66800;SDS011;53703;50.326;19.122;2023-02-15T00:10:49;16.60;;;8.50;;
66800;SDS011;53703;50.326;19.122;2023-02-15T00:13:43;17.00;;;8.80;;
66800;SDS011;53703;50.326;19.122;2023-02-15T00:16:38;19.30;;;9.70;;
66800;SDS011;53703;50.326;19.122;2023-02-15T00:19:32;17.40;;;8.50;;
66800;SDS011;53703;50.326;19.122;2023-02-15T00:22:22;16.30;;;8.90;;
66800;SDS011;53703;50.326;19.122;2023-02-15T00:25:16;16.60;;;8.90;;
66800;SDS011;53703;50.326;19.122;2023-02-15T00:28:10;16.90;;;8.60;;
66800;SDS011;53703;50.326;19.122;2023-02-15T00:31:08;17.50;;;8.20;;
66800;SDS011;53703;50.326;19.122;2023-02-15T00:34:06;18.60;;;9.30;;
66800;SDS011;53703;50.326;19.122;2023-02-15T00:37:03;18.00;;;8.70;;
66800;SDS011;53703;50.326;19.122;2023-02-15T00:39:57;18.30;;;9.30;;
66800;SDS011;53703;50.326;19.122;2023-02-15T00:42:50;19.10;;;8.70;;
66800;SDS011;53703;50.326;19.122;2023-02-15T00:45:45;17.30;;;8.90;;
66800;SDS011;53703;50.326;19.122;2023-02-15T00:48:39;17.10;;;8.60;;
66800;SDS011;53703;50.326;19.122;2023-02-15T00:51:33;15.50;;;8.50;;
66800;SDS011;53703;50.326;19.122;2023-02-15T00:54:27;16.70;;;9.10;;
66800;SDS011;53703;50.326;19.122;2023-02-15T00:57:21;16.80;;;8.60;;
66800;SDS011;53703;50.326;19.122;2023-02-15T01:00:15;19.70;;;9.20;;
66800;SDS011;53703;50.326;19.122;2023-02-15T01:03:09;18.90;;;9.50;;
66800;SDS011;53703;50.326;19.122;2023-02-15T01:06:04;17.90;;;9.40;;
66800;SDS011;53703;50.326;19.122;2023-02-15T01:08:59;17.30;;;8.90;;
66800;SDS011;53703;50.326;19.122;2023-02-15T01:11:52;18.10;;;9.40;;
66800;SDS011;53703;50.326;19.122;2023-02-15T01:14:46;16.00;;;8.70;;
66800;SDS011;53703;50.326;19.122;2023-02-15T01:17:40;18.70;;;9.00;;
66800;SDS011;53703;50.326;19.122;2023-02-15T01:20:38;16.90;;;8.60;;
66800;SDS011;53703;50.326;19.122;2023-02-15T01:23:33;17.10;;;9.20;;
66800;SDS011;53703;50.326;19.122;2023-02-15T01:26:27;16.30;;;8.40;;
66800;SDS011;53703;50.326;19.122;2023-02-15T01:29:22;15.60;;;8.80;;
66800;SDS011;53703;50.326;19.122;2023-02-15T01:32:15;16.00;;;8.30;;
66800;SDS011;53703;50.326;19.122;2023-02-15T01:35:09;16.30;;;8.80;;
66800;SDS011;53703;50.326;19.122;2023-02-15T01:38:03;14.90;;;8.40;;
66800;SDS011;53703;50.326;19.122;2023-02-15T01:40:57;17.90;;;9.00;;
66800;SDS011;53703;50.326;19.122;2023-02-15T01:47:33;14.80;;;8.20;;
66800;SDS011;53703;50.326;19.122;2023-02-15T01:50:32;16.20;;;8.30;;
66800;SDS011;53703;50.326;19.122;2023-02-15T01:53:30;17.10;;;8.60;;
66800;SDS011;53703;50.326;19.122;2023-02-15T01:56:29;18.60;;;8.80;;
66800;SDS011;53703;50.326;19.122;2023-02-15T01:59:25;18.20;;;8.90;;
66800;SDS011;53703;50.326;19.122;2023-02-15T02:02:20;16.70;;;9.00;;
66800;SDS011;53703;50.326;19.122;2023-02-15T02:05:02;15.30;;;8.10;;
66800;SDS011;53703;50.326;19.122;2023-02-15T02:07:59;14.90;;;8.30;;
66800;SDS011;53703;50.326;19.122;2023-02-15T02:10:54;15.30;;;8.50;;
66800;SDS011;53703;50.326;19.122;2023-02-15T02:13:48;16.50;;;8.70;;
66800;SDS011;53703;50.326;19.122;2023-02-15T02:16:49;17.10;;;8.40;;
66800;SDS011;53703;50.326;19.122;2023-02-15T02:23:34;15.40;;;8.30;;
66800;SDS011;53703;50.326;19.122;2023-02-15T02:27:09;14.40;;;7.80;;
66800;SDS011;53703;50.326;19.122;2023-02-15T02:30:47;15.20;;;8.40;;
66800;SDS011;53703;50.326;19.122;2023-02-15T02:33:59;17.40;;;9.20;;
66800;SDS011;53703;50.326;19.122;2023-02-15T02:37:06;14.20;;;8.60;;
66800;SDS011;53703;50.326;19.122;2023-02-15T02:40:10;16.10;;;8.20;;
66800;SDS011;53703;50.326;19.122;2023-02-15T02:43:15;16.50;;;8.20;;
66800;SDS011;53703;50.326;19.122;2023-02-15T02:46:26;17.40;;;8.50;;
66800;SDS011;53703;50.326;19.122;2023-02-15T02:49:34;18.10;;;8.60;;
66800;SDS011;53703;50.326;19.122;2023-02-15T02:52:41;15.90;;;8.50;;
66800;SDS011;53703;50.326;19.122;2023-02-15T02:55:37;17.60;;;9.00;;
66800;SDS011;53703;50.326;19.122;2023-02-15T02:58:35;15.40;;;7.90;;
66800;SDS011;53703;50.326;19.122;2023-02-15T03:01:39;16.40;;;8.70;;
66800;SDS011;53703;50.326;19.122;2023-02-15T03:04:37;17.30;;;8.60;;
66800;SDS011;53703;50.326;19.122;2023-02-15T03:07:26;15.90;;;8.60;;
66800;SDS011;53703;50.326;19.122;2023-02-15T03:10:22;14.90;;;8.60;;
66800;SDS011;53703;50.326;19.122;2023-02-15T03:13:18;17.00;;;8.30;;
66800;SDS011;53703;50.326;19.122;2023-02-15T03:16:12;16.30;;;8.60;;
66800;SDS011;53703;50.326;19.122;2023-02-15T03:19:20;16.70;;;8.60;;
66800;SDS011;53703;50.326;19.122;2023-02-15T03:22:19;18.10;;;8.60;;
66800;SDS011;53703;50.326;19.122;2023-02-15T03:25:32;16.80;;;8.20;;
66800;SDS011;53703;50.326;19.122;2023-02-15T03:28:30;15.80;;;8.40;;
66800;SDS011;53703;50.326;19.122;2023-02-15T03:31:28;16.40;;;8.70;;
66800;SDS011;53703;50.326;19.122;2023-02-15T03:34:27;17.00;;;8.30;;
66800;SDS011;53703;50.326;19.122;2023-02-15T03:37:25;16.50;;;8.80;;
66800;SDS011;53703;50.326;19.122;2023-02-15T03:40:19;15.60;;;8.30;;
66800;SDS011;53703;50.326;19.122;2023-02-15T03:43:37;15.30;;;7.70;;
66800;SDS011;53703;50.326;19.122;2023-02-15T03:46:38;16.50;;;8.60;;
66800;SDS011;53703;50.326;19.122;2023-02-15T03:49:40;16.00;;;8.10;;
66800;SDS011;53703;50.326;19.122;2023-02-15T03:52:37;17.20;;;8.80;;
66800;SDS011;53703;50.326;19.122;2023-02-15T03:55:31;15.50;;;8.30;;
66800;SDS011;53703;50.326;19.122;2023-02-15T03:58:27;18.40;;;8.50;;
66800;SDS011;53703;50.326;19.122;2023-02-15T04:01:57;15.30;;;8.40;;
66800;SDS011;53703;50.326;19.122;2023-02-15T04:04:59;21.10;;;8.90;;
66800;SDS011;53703;50.326;19.122;2023-02-15T04:07:53;18.40;;;9.20;;
66800;SDS011;53703;50.326;19.122;2023-02-15T04:10:47;18.50;;;9.20;;
66800;SDS011;53703;50.326;19.122;2023-02-15T04:13:44;18.40;;;8.80;;
66800;SDS011;53703;50.326;19.122;2023-02-15T04:16:37;17.00;;;8.80;;
66800;SDS011;53703;50.326;19.122;2023-02-15T04:19:31;19.20;;;8.50;;
66800;SDS011;53703;50.326;19.122;2023-02-15T04:22:42;15.90;;;8.60;;
66800;SDS011;53703;50.326;19.122;2023-02-15T04:25:54;17.20;;;9.40;;
66800;SDS011;53703;50.326;19.122;2023-02-15T04:28:48;17.70;;;8.90;;
66800;SDS011;53703;50.326;19.122;2023-02-15T04:31:41;18.10;;;9.00;;
66800;SDS011;53703;50.326;19.122;2023-02-15T04:34:35;17.60;;;9.20;;
66800;SDS011;53703;50.326;19.122;2023-02-15T04:37:29;18.90;;;9.50;;
66800;SDS011;53703;50.326;19.122;2023-02-15T04:40:23;19.80;;;9.80;;
66800;SDS011;53703;50.326;19.122;2023-02-15T04:43:17;15.80;;;8.40;;
66800;SDS011;53703;50.326;19.122;2023-02-15T04:46:11;16.10;;;8.60;;
66800;SDS011;53703;50.326;19.122;2023-02-15T04:49:05;14.60;;;8.30;;
66800;SDS011;53703;50.326;19.122;2023-02-15T04:52:00;19.70;;;9.30;;
66800;SDS011;53703;50.326;19.122;2023-02-15T04:54:53;17.40;;;9.10;;
66800;SDS011;53703;50.326;19.122;2023-02-15T04:57:48;17.20;;;9.50;;
66800;SDS011;53703;50.326;19.122;2023-02-15T05:00:42;17.40;;;9.50;;
66800;SDS011;53703;50.326;19.122;2023-02-15T05:03:36;16.30;;;8.70;;
66800;SDS011;53703;50.326;19.122;2023-02-15T05:06:30;16.30;;;8.60;;
66800;SDS011;53703;50.326;19.122;2023-02-15T05:09:23;17.60;;;8.90;;
66800;SDS011;53703;50.326;19.122;2023-02-15T05:12:17;17.20;;;9.00;;
66800;SDS011;53703;50.326;19.122;2023-02-15T05:15:11;18.60;;;9.20;;
66800;SDS011;53703;50.326;19.122;2023-02-15T05:18:05;17.30;;;9.20;;
66800;SDS011;53703;50.326;19.122;2023-02-15T05:20:59;18.60;;;8.90;;
66800;SDS011;53703;50.326;19.122;2023-02-15T05:23:53;18.60;;;9.40;;
66800;SDS011;53703;50.326;19.122;2023-02-15T05:26:47;17.10;;;9.20;;
66800;SDS011;53703;50.326;19.122;2023-02-15T05:29:58;17.10;;;9.90;;
66800;SDS011;53703;50.326;19.122;2023-02-15T05:32:52;18.20;;;9.40;;
66800;SDS011;53703;50.326;19.122;2023-02-15T05:35:46;21.30;;;9.00;;
66800;SDS011;53703;50.326;19.122;2023-02-15T05:38:40;17.20;;;9.00;;
66800;SDS011;53703;50.326;19.122;2023-02-15T05:41:33;15.70;;;8.70;;
66800;SDS011;53703;50.326;19.122;2023-02-15T05:44:27;17.00;;;9.10;;
66800;SDS011;53703;50.326;19.122;2023-02-15T05:47:21;16.40;;;8.50;;
66800;SDS011;53703;50.326;19.122;2023-02-15T05:50:15;18.70;;;8.90;;
66800;SDS011;53703;50.326;19.122;2023-02-15T05:53:09;16.00;;;8.90;;
66800;SDS011;53703;50.326;19.122;2023-02-15T05:56:04;15.60;;;9.10;;
66800;SDS011;53703;50.326;19.122;2023-02-15T05:58:59;18.80;;;9.20;;
66800;SDS011;53703;50.326;19.122;2023-02-15T06:01:53;15.20;;;9.00;;
66800;SDS011;53703;50.326;19.122;2023-02-15T06:04:47;17.10;;;8.90;;
66800;SDS011;53703;50.326;19.122;2023-02-15T06:07:41;15.90;;;9.00;;
66800;SDS011;53703;50.326;19.122;2023-02-15T06:10:36;16.80;;;8.80;;
66800;SDS011;53703;50.326;19.122;2023-02-15T06:13:31;14.80;;;8.90;;
66800;SDS011;53703;50.326;19.122;2023-02-15T06:16:28;17.20;;;8.90;;
66800;SDS011;53703;50.326;19.122;2023-02-15T06:19:22;17.70;;;8.50;;
66800;SDS011;53703;50.326;19.122;2023-02-15T06:22:16;20.30;;;8.30;;
66800;SDS011;53703;50.326;19.122;2023-02-15T06:25:11;16.00;;;8.80;;
66800;SDS011;53703;50.326;19.122;2023-02-15T06:28:04;15.10;;;8.20;;
66800;SDS011;53703;50.326;19.122;2023-02-15T06:30:58;15.10;;;8.70;;
66800;SDS011;53703;50.326;19.122;2023-02-15T06:33:52;13.60;;;8.20;;
66800;SDS011;53703;50.326;19.122;2023-02-15T06:36:51;17.40;;;8.20;;
66800;SDS011;53703;50.326;19.122;2023-02-15T06:39:45;14.80;;;7.60;;
66800;SDS011;53703;50.326;19.122;2023-02-15T06:42:39;16.90;;;8.40;;
66800;SDS011;53703;50.326;19.122;2023-02-15T06:45:33;18.60;;;8.60;;
66800;SDS011;53703;50.326;19.122;2023-02-15T06:48:27;17.10;;;9.20;;
66800;SDS011;53703;50.326;19.122;2023-02-15T06:51:20;16.00;;;9.00;;
66800;SDS011;53703;50.326;19.122;2023-02-15T06:54:14;15.50;;;9.00;;
66800;SDS011;53703;50.326;19.122;2023-02-15T06:57:08;14.40;;;8.60;;
66800;SDS011;53703;50.326;19.122;2023-02-15T07:00:02;15.60;;;8.90;;
66800;SDS011;53703;50.326;19.122;2023-02-15T07:02:58;13.70;;;8.70;;
66800;SDS011;53703;50.326;19.122;2023-02-15T07:05:43;17.20;;;10.00;;
66800;SDS011;53703;50.326;19.122;2023-02-15T07:08:38;17.70;;;9.90;;
66800;SDS011;53703;50.326;19.122;2023-02-15T07:11:15;16.20;;;9.70;;
66800;SDS011;53703;50.326;19.122;2023-02-15T07:14:26;15.00;;;8.90;;
66800;SDS011;53703;50.326;19.122;2023-02-15T07:17:20;17.20;;;9.20;;
66800;SDS011;53703;50.326;19.122;2023-02-15T07:20:26;16.10;;;9.90;;
66800;SDS011;53703;50.326;19.122;2023-02-15T07:23:20;17.70;;;9.40;;
66800;SDS011;53703;50.326;19.122;2023-02-15T07:26:16;15.30;;;9.00;;
66800;SDS011;53703;50.326;19.122;2023-02-15T07:29:10;17.70;;;9.50;;
66800;SDS011;53703;50.326;19.122;2023-02-15T07:32:03;17.00;;;8.60;;
66800;SDS011;53703;50.326;19.122;2023-02-15T07:34:57;16.60;;;9.10;;
66800;SDS011;53703;50.326;19.122;2023-02-15T07:37:51;16.40;;;10.10;;
66800;SDS011;53703;50.326;19.122;2023-02-15T07:40:45;18.50;;;9.50;;
66800;SDS011;53703;50.326;19.122;2023-02-15T07:43:30;19.30;;;9.70;;
66800;SDS011;53703;50.326;19.122;2023-02-15T07:46:24;13.80;;;8.80;;
66800;SDS011;53703;50.326;19.122;2023-02-15T07:49:19;18.60;;;9.70;;
66800;SDS011;53703;50.326;19.122;2023-02-15T07:52:12;18.00;;;9.50;;
66800;SDS011;53703;50.326;19.122;2023-02-15T07:55:07;19.00;;;10.00;;
66800;SDS011;53703;50.326;19.122;2023-02-15T07:58:03;17.20;;;9.60;;
66800;SDS011;53703;50.326;19.122;2023-02-15T08:00:58;16.20;;;8.60;;
66800;SDS011;53703;50.326;19.122;2023-02-15T08:03:55;16.20;;;9.40;;
66800;SDS011;53703;50.326;19.122;2023-02-15T08:06:51;18.80;;;9.90;;
66800;SDS011;53703;50.326;19.122;2023-02-15T08:09:45;17.10;;;9.00;;
66800;SDS011;53703;50.326;19.122;2023-02-15T08:12:39;18.10;;;9.70;;
66800;SDS011;53703;50.326;19.122;2023-02-15T08:15:33;37.70;;;13.50;;
66800;SDS011;53703;50.326;19.122;2023-02-15T08:18:11;51.30;;;15.80;;
66800;SDS011;53703;50.326;19.122;2023-02-15T08:21:06;36.20;;;13.10;;
66800;SDS011;53703;50.326;19.122;2023-02-15T08:23:59;37.20;;;12.70;;
66800;SDS011;53703;50.326;19.122;2023-02-15T08:26:54;37.50;;;12.20;;
66800;SDS011;53703;50.326;19.122;2023-02-15T08:29:49;29.40;;;11.80;;
66800;SDS011;53703;50.326;19.122;2023-02-15T08:32:42;26.00;;;11.20;;
66800;SDS011;53703;50.326;19.122;2023-02-15T08:35:37;26.70;;;12.20;;
66800;SDS011;53703;50.326;19.122;2023-02-15T08:38:31;25.80;;;11.20;;
66800;SDS011;53703;50.326;19.122;2023-02-15T08:41:26;25.70;;;10.90;;
66800;SDS011;53703;50.326;19.122;2023-02-15T08:44:21;24.50;;;10.60;;
66800;SDS011;53703;50.326;19.122;2023-02-15T08:47:15;23.90;;;11.70;;
66800;SDS011;53703;50.326;19.122;2023-02-15T08:50:09;21.40;;;10.40;;
66800;SDS011;53703;50.326;19.122;2023-02-15T08:53:03;29.60;;;12.10;;
66800;SDS011;53703;50.326;19.122;2023-02-15T08:55:58;30.10;;;13.90;;
66800;SDS011;53703;50.326;19.122;2023-02-15T08:58:52;36.90;;;15.20;;
66800;SDS011;53703;50.326;19.122;2023-02-15T09:01:35;34.90;;;15.50;;
66800;SDS011;53703;50.326;19.122;2023-02-15T09:04:30;34.10;;;15.40;;
66800;SDS011;53703;50.326;19.122;2023-02-15T09:07:25;33.10;;;12.70;;
66800;SDS011;53703;50.326;19.122;2023-02-15T09:10:19;32.10;;;14.20;;
66800;SDS011;53703;50.326;19.122;2023-02-15T09:13:13;31.20;;;14.60;;
66800;SDS011;53703;50.326;19.122;2023-02-15T09:16:08;35.70;;;15.10;;
66800;SDS011;53703;50.326;19.122;2023-02-15T09:19:03;36.30;;;17.00;;
66800;SDS011;53703;50.326;19.122;2023-02-15T09:21:57;32.10;;;14.90;;
66800;SDS011;53703;50.326;19.122;2023-02-15T09:24:51;32.50;;;16.00;;
66800;SDS011;53703;50.326;19.122;2023-02-15T09:27:45;31.10;;;14.60;;
66800;SDS011;53703;50.326;19.122;2023-02-15T09:30:39;30.80;;;16.30;;
66800;SDS011;53703;50.326;19.122;2023-02-15T09:33:18;37.10;;;21.10;;
66800;SDS011;53703;50.326;19.122;2023-02-15T09:36:17;39.20;;;21.10;;
66800;SDS011;53703;50.326;19.122;2023-02-15T09:39:13;39.60;;;20.20;;
66800;SDS011;53703;50.326;19.122;2023-02-15T09:42:34;35.20;;;18.40;;
66800;SDS011;53703;50.326;19.122;2023-02-15T09:45:45;29.40;;;16.00;;
66800;SDS011;53703;50.326;19.122;2023-02-15T09:48:51;32.10;;;16.00;;
66800;SDS011;53703;50.326;19.122;2023-02-15T09:51:59;26.30;;;15.80;;
66800;SDS011;53703;50.326;19.122;2023-02-15T09:55:20;32.50;;;16.10;;
66800;SDS011;53703;50.326;19.122;2023-02-15T09:58:44;32.50;;;16.30;;
66800;SDS011;53703;50.326;19.122;2023-02-15T10:01:50;28.50;;;15.60;;
66800;SDS011;53703;50.326;19.122;2023-02-15T10:04:57;30.20;;;16.10;;
66800;SDS011;53703;50.326;19.122;2023-02-15T10:08:10;29.10;;;15.50;;
66800;SDS011;53703;50.326;19.122;2023-02-15T10:11:23;26.80;;;15.60;;
66800;SDS011;53703;50.326;19.122;2023-02-15T10:14:27;30.20;;;16.30;;
66800;SDS011;53703;50.326;19.122;2023-02-15T10:17:39;26.50;;;15.00;;
66800;SDS011;53703;50.326;19.122;2023-02-15T10:20:45;29.00;;;15.40;;
66800;SDS011;53703;50.326;19.122;2023-02-15T10:24:08;29.20;;;14.40;;
66800;SDS011;53703;50.326;19.122;2023-02-15T10:27:22;29.20;;;15.30;;
66800;SDS011;53703;50.326;19.122;2023-02-15T10:30:19;27.50;;;14.60;;
66800;SDS011;53703;50.326;19.122;2023-02-15T10:33:30;26.30;;;14.90;;
66800;SDS011;53703;50.326;19.122;2023-02-15T10:39:40;24.40;;;13.50;;
66800;SDS011;53703;50.326;19.122;2023-02-15T10:42:48;24.40;;;13.90;;
66800;SDS011;53703;50.326;19.122;2023-02-15T10:45:56;23.60;;;13.30;;
66800;SDS011;53703;50.326;19.122;2023-02-15T10:49:08;23.50;;;13.10;;
66800;SDS011;53703;50.326;19.122;2023-02-15T10:52:01;26.70;;;13.80;;
66800;SDS011;53703;50.326;19.122;2023-02-15T10:55:11;24.20;;;13.50;;
66800;SDS011;53703;50.326;19.122;2023-02-15T10:58:16;25.00;;;13.80;;
66800;SDS011;53703;50.326;19.122;2023-02-15T11:01:20;22.10;;;13.40;;
66800;SDS011;53703;50.326;19.122;2023-02-15T11:04:43;22.00;;;13.00;;
66800;SDS011;53703;50.326;19.122;2023-02-15T11:07:43;23.60;;;13.00;;
66800;SDS011;53703;50.326;19.122;2023-02-15T11:10:41;23.40;;;13.10;;
66800;SDS011;53703;50.326;19.122;2023-02-15T11:13:38;22.40;;;13.10;;
66800;SDS011;53703;50.326;19.122;2023-02-15T11:16:36;21.60;;;13.00;;
66800;SDS011;53703;50.326;19.122;2023-02-15T11:19:35;24.80;;;15.20;;
66800;SDS011;53703;50.326;19.122;2023-02-15T11:22:25;31.20;;;16.30;;
66800;SDS011;53703;50.326;19.122;2023-02-15T11:25:22;27.40;;;15.10;;
66800;SDS011;53703;50.326;19.122;2023-02-15T11:28:22;27.80;;;15.70;;
66800;SDS011;53703;50.326;19.122;2023-02-15T11:31:22;31.30;;;16.00;;
66800;SDS011;53703;50.326;19.122;2023-02-15T11:34:21;28.20;;;14.60;;
66800;SDS011;53703;50.326;19.122;2023-02-15T11:37:23;31.30;;;15.40;;
66800;SDS011;53703;50.326;19.122;2023-02-15T11:40:23;28.30;;;15.00;;
66800;SDS011;53703;50.326;19.122;2023-02-15T11:43:21;30.00;;;15.30;;
66800;SDS011;53703;50.326;19.122;2023-02-15T11:46:21;26.70;;;15.70;;
66800;SDS011;53703;50.326;19.122;2023-02-15T11:49:26;29.10;;;14.70;;
66800;SDS011;53703;50.326;19.122;2023-02-15T11:52:22;28.90;;;15.90;;
66800;SDS011;53703;50.326;19.122;2023-02-15T11:55:20;26.50;;;14.00;;
66800;SDS011;53703;50.326;19.122;2023-02-15T11:58:01;25.90;;;14.10;;
66800;SDS011;53703;50.326;19.122;2023-02-15T12:01:02;29.30;;;14.30;;
66800;SDS011;53703;50.326;19.122;2023-02-15T12:04:06;24.00;;;14.00;;
66800;SDS011;53703;50.326;19.122;2023-02-15T12:07:11;27.00;;;14.30;;
66800;SDS011;53703;50.326;19.122;2023-02-15T12:10:19;24.10;;;14.00;;
66800;SDS011;53703;50.326;19.122;2023-02-15T12:13:17;24.40;;;13.30;;
66800;SDS011;53703;50.326;19.122;2023-02-15T12:16:12;24.80;;;12.70;;
66800;SDS011;53703;50.326;19.122;2023-02-15T12:18:46;21.10;;;12.20;;
66800;SDS011;53703;50.326;19.122;2023-02-15T12:21:42;23.30;;;12.80;;
66800;SDS011;53703;50.326;19.122;2023-02-15T12:24:38;22.40;;;12.50;;
66800;SDS011;53703;50.326;19.122;2023-02-15T12:27:42;22.90;;;12.80;;
66800;SDS011;53703;50.326;19.122;2023-02-15T12:30:36;21.70;;;12.30;;
66800;SDS011;53703;50.326;19.122;2023-02-15T12:33:36;22.30;;;12.20;;
66800;SDS011;53703;50.326;19.122;2023-02-15T12:36:42;24.10;;;13.20;;
66800;SDS011;53703;50.326;19.122;2023-02-15T12:39:50;23.00;;;12.60;;
66800;SDS011;53703;50.326;19.122;2023-02-15T12:42:46;21.60;;;12.10;;
66800;SDS011;53703;50.326;19.122;2023-02-15T12:45:40;23.80;;;12.80;;
66800;SDS011;53703;50.326;19.122;2023-02-15T12:48:24;21.30;;;12.10;;
66800;SDS011;53703;50.326;19.122;2023-02-15T12:51:17;22.50;;;13.10;;
66800;SDS011;53703;50.326;19.122;2023-02-15T12:54:21;18.90;;;11.30;;
66800;SDS011;53703;50.326;19.122;2023-02-15T12:57:27;22.70;;;12.90;;
66800;SDS011;53703;50.326;19.122;2023-02-15T13:00:30;24.60;;;12.90;;
66800;SDS011;53703;50.326;19.122;2023-02-15T13:03:25;20.90;;;11.60;;
66800;SDS011;53703;50.326;19.122;2023-02-15T13:06:19;22.90;;;12.60;;
66800;SDS011;53703;50.326;19.122;2023-02-15T13:09:15;27.20;;;13.10;;
66800;SDS011;53703;50.326;19.122;2023-02-15T13:12:32;19.60;;;11.50;;
66800;SDS011;53703;50.326;19.122;2023-02-15T13:15:37;20.70;;;12.30;;
66800;SDS011;53703;50.326;19.122;2023-02-15T13:18:34;21.70;;;12.00;;
66800;SDS011;53703;50.326;19.122;2023-02-15T13:21:32;23.10;;;12.20;;
66800;SDS011;53703;50.326;19.122;2023-02-15T13:24:32;23.50;;;11.40;;
66800;SDS011;53703;50.326;19.122;2023-02-15T13:27:32;19.80;;;11.60;;
66800;SDS011;53703;50.326;19.122;2023-02-15T13:30:31;23.90;;;12.00;;
66800;SDS011;53703;50.326;19.122;2023-02-15T13:33:30;20.00;;;11.10;;
66800;SDS011;53703;50.326;19.122;2023-02-15T13:36:29;20.00;;;11.40;;
66800;SDS011;53703;50.326;19.122;2023-02-15T13:39:26;25.40;;;11.90;;
66800;SDS011;53703;50.326;19.122;2023-02-15T13:42:35;30.30;;;12.20;;
66800;SDS011;53703;50.326;19.122;2023-02-15T13:45:38;32.60;;;12.70;;
66800;SDS011;53703;50.326;19.122;2023-02-15T13:48:44;35.90;;;13.20;;
66800;SDS011;53703;50.326;19.122;2023-02-15T13:51:45;30.70;;;12.10;;
66800;SDS011;53703;50.326;19.122;2023-02-15T13:58:04;33.90;;;14.40;;
66800;SDS011;53703;50.326;19.122;2023-02-15T14:01:13;33.10;;;13.70;;
66800;SDS011;53703;50.326;19.122;2023-02-15T14:07:51;30.90;;;13.50;;
66800;SDS011;53703;50.326;19.122;2023-02-15T14:10:55;24.60;;;12.30;;
66800;SDS011;53703;50.326;19.122;2023-02-15T14:14:19;31.90;;;13.10;;
66800;SDS011;53703;50.326;19.122;2023-02-15T14:17:38;31.80;;;13.50;;
66800;SDS011;53703;50.326;19.122;2023-02-15T14:20:50;31.60;;;13.20;;
66800;SDS011;53703;50.326;19.122;2023-02-15T14:24:05;29.80;;;11.80;;
66800;SDS011;53703;50.326;19.122;2023-02-15T14:27:14;29.80;;;12.70;;
66800;SDS011;53703;50.326;19.122;2023-02-15T14:30:18;27.70;;;12.40;;
66800;SDS011;53703;50.326;19.122;2023-02-15T14:33:31;33.80;;;12.70;;
66800;SDS011;53703;50.326;19.122;2023-02-15T14:36:27;30.70;;;13.30;;
66800;SDS011;53703;50.326;19.122;2023-02-15T14:39:29;28.10;;;12.40;;
66800;SDS011;53703;50.326;19.122;2023-02-15T14:42:48;26.20;;;12.40;;
66800;SDS011;53703;50.326;19.122;2023-02-15T14:45:52;26.30;;;12.10;;
66800;SDS011;53703;50.326;19.122;2023-02-15T14:48:48;26.60;;;11.90;;
66800;SDS011;53703;50.326;19.122;2023-02-15T14:51:59;26.40;;;11.50;;
66800;SDS011;53703;50.326;19.122;2023-02-15T14:55:06;25.70;;;11.30;;
66800;SDS011;53703;50.326;19.122;2023-02-15T14:58:00;24.10;;;12.40;;
66800;SDS011;53703;50.326;19.122;2023-02-15T15:01:07;28.50;;;11.50;;
66800;SDS011;53703;50.326;19.122;2023-02-15T15:04:04;29.10;;;12.60;;
66800;SDS011;53703;50.326;19.122;2023-02-15T15:07:03;23.40;;;11.00;;
66800;SDS011;53703;50.326;19.122;2023-02-15T15:10:40;24.10;;;11.40;;
66800;SDS011;53703;50.326;19.122;2023-02-15T15:13:40;26.90;;;12.00;;
66800;SDS011;53703;50.326;19.122;2023-02-15T15:16:52;24.10;;;12.10;;
66800;SDS011;53703;50.326;19.122;2023-02-15T15:20:09;24.30;;;11.60;;
66800;SDS011;53703;50.326;19.122;2023-02-15T15:26:32;28.90;;;11.70;;
66800;SDS011;53703;50.326;19.122;2023-02-15T15:29:41;26.20;;;10.50;;
66800;SDS011;53703;50.326;19.122;2023-02-15T15:32:35;27.50;;;11.50;;
66800;SDS011;53703;50.326;19.122;2023-02-15T15:35:34;25.20;;;11.10;;
66800;SDS011;53703;50.326;19.122;2023-02-15T15:38:39;23.40;;;10.90;;
66800;SDS011;53703;50.326;19.122;2023-02-15T15:41:45;19.60;;;10.40;;
66800;SDS011;53703;50.326;19.122;2023-02-15T15:45:17;23.90;;;10.60;;
66800;SDS011;53703;50.326;19.122;2023-02-15T15:48:30;21.70;;;10.10;;
66800;SDS011;53703;50.326;19.122;2023-02-15T15:51:28;26.30;;;10.60;;
66800;SDS011;53703;50.326;19.122;2023-02-15T15:54:25;23.90;;;11.10;;
66800;SDS011;53703;50.326;19.122;2023-02-15T15:57:23;25.10;;;10.60;;
66800;SDS011;53703;50.326;19.122;2023-02-15T16:00:35;22.70;;;10.60;;
66800;SDS011;53703;50.326;19.122;2023-02-15T16:03:35;20.20;;;10.40;;
66800;SDS011;53703;50.326;19.122;2023-02-15T16:06:30;22.60;;;10.50;;
66800;SDS011;53703;50.326;19.122;2023-02-15T16:09:27;20.60;;;10.10;;
66800;SDS011;53703;50.326;19.122;2023-02-15T16:12:21;22.60;;;10.70;;
66800;SDS011;53703;50.326;19.122;2023-02-15T16:15:18;27.50;;;10.10;;
66800;SDS011;53703;50.326;19.122;2023-02-15T16:18:16;22.80;;;11.10;;
66800;SDS011;53703;50.326;19.122;2023-02-15T16:21:17;19.60;;;10.20;;
66800;SDS011;53703;50.326;19.122;2023-02-15T16:27:38;20.40;;;10.40;;
66800;SDS011;53703;50.326;19.122;2023-02-15T16:30:37;21.70;;;9.80;;
66800;SDS011;53703;50.326;19.122;2023-02-15T16:33:38;21.90;;;10.60;;
66800;SDS011;53703;50.326;19.122;2023-02-15T16:36:33;22.20;;;10.50;;
66800;SDS011;53703;50.326;19.122;2023-02-15T16:39:27;22.10;;;10.80;;
66800;SDS011;53703;50.326;19.122;2023-02-15T16:42:22;23.30;;;11.00;;
66800;SDS011;53703;50.326;19.122;2023-02-15T16:45:18;28.30;;;12.40;;
66800;SDS011;53703;50.326;19.122;2023-02-15T16:48:18;20.40;;;10.90;;
66800;SDS011;53703;50.326;19.122;2023-02-15T16:51:03;20.50;;;11.00;;
66800;SDS011;53703;50.326;19.122;2023-02-15T16:54:00;21.90;;;11.20;;
66800;SDS011;53703;50.326;19.122;2023-02-15T16:57:19;25.30;;;11.30;;
66800;SDS011;53703;50.326;19.122;2023-02-15T17:00:21;25.10;;;12.30;;
66800;SDS011;53703;50.326;19.122;2023-02-15T17:03:24;23.80;;;10.90;;
66800;SDS011;53703;50.326;19.122;2023-02-15T17:06:23;23.80;;;10.90;;
66800;SDS011;53703;50.326;19.122;2023-02-15T17:09:20;22.40;;;11.70;;
66800;SDS011;53703;50.326;19.122;2023-02-15T17:15:37;24.70;;;11.40;;
66800;SDS011;53703;50.326;19.122;2023-02-15T17:18:33;23.40;;;11.20;;
66800;SDS011;53703;50.326;19.122;2023-02-15T17:21:39;20.90;;;11.10;;
66800;SDS011;53703;50.326;19.122;2023-02-15T17:24:39;23.70;;;11.30;;
66800;SDS011;53703;50.326;19.122;2023-02-15T17:27:20;22.30;;;11.10;;
66800;SDS011;53703;50.326;19.122;2023-02-15T17:30:21;24.30;;;11.20;;
66800;SDS011;53703;50.326;19.122;2023-02-15T17:33:38;23.90;;;11.80;;
66800;SDS011;53703;50.326;19.122;2023-02-15T17:36:32;23.50;;;12.80;;
66800;SDS011;53703;50.326;19.122;2023-02-15T17:39:26;20.10;;;11.10;;
66800;SDS011;53703;50.326;19.122;2023-02-15T17:42:19;23.10;;;10.90;;
66800;SDS011;53703;50.326;19.122;2023-02-15T17:45:14;21.50;;;11.10;;